Time;durP1;ratioP1;P1;durP2;ratioP2;P2;SDS_P1;SDS_P2;PMS_P1;PMS_P2;Temp;Humidity;BMP_temperature;BMP_pressure;BME280_temperature;BME280_humidity;BME280_pressure;Samples;Min_cycle;Max_cycle;Signal;HPM_P1;HPM_P2
2022/05/05 00:00:06;;;;;;;11.20;9.60;;;13.70;99.90;;;;;;5094008;28;20214;-67
2022/05/05 00:02:33;;;;;;;11.70;10.50;;;13.70;99.90;;;;;;5094391;28;20256;-67
2022/05/05 00:05:00;;;;;;;11.07;9.70;;;13.80;99.90;;;;;;5094160;28;20667;-67
2022/05/05 00:07:26;;;;;;;10.80;9.70;;;13.80;99.90;;;;;;5094433;28;20222;-67
2022/05/05 00:09:53;;;;;;;11.00;9.88;;;13.80;99.90;;;;;;5094432;28;20206;-66
2022/05/05 00:15:07;;;;;;;11.90;10.48;;;13.70;99.90;;;;;;5094212;28;20213;-67
2022/05/05 00:17:34;;;;;;;11.35;10.15;;;13.70;99.90;;;;;;5094002;28;20280;-67
2022/05/05 00:20:01;;;;;;;13.48;11.70;;;13.70;99.90;;;;;;5094315;28;20202;-67
2022/05/05 00:22:28;;;;;;;11.73;10.18;;;13.50;99.90;;;;;;5094281;28;20198;-67
2022/05/05 00:24:55;;;;;;;12.85;11.52;;;13.50;99.90;;;;;;5093604;28;20212;-67
2022/05/05 00:27:22;;;;;;;12.02;10.70;;;13.60;99.90;;;;;;5093928;28;20218;-67
2022/05/05 00:29:51;;;;;;;13.65;10.23;;;13.70;99.90;;;;;;5093553;28;20210;-67
2022/05/05 00:32:19;;;;;;;12.85;11.00;;;13.70;99.90;;;;;;5093377;28;20574;-66
2022/05/05 00:34:46;;;;;;;11.80;10.60;;;13.70;99.90;;;;;;5093311;28;20297;-67
2022/05/05 00:37:12;;;;;;;13.07;11.18;;;13.70;99.90;;;;;;5093059;28;20229;-69
2022/05/05 00:39:39;;;;;;;12.48;10.65;;;13.70;99.90;;;;;;5092859;28;20293;-68
2022/05/05 00:42:11;;;;;;;12.38;11.02;;;13.70;99.90;;;;;;5093371;28;20298;-68
2022/05/05 00:44:38;;;;;;;11.80;10.55;;;13.60;99.90;;;;;;5092977;28;20206;-68
2022/05/05 00:47:05;;;;;;;11.10;9.93;;;13.60;99.90;;;;;;5093019;28;20276;-68
2022/05/05 00:49:33;;;;;;;12.68;10.32;;;13.60;99.90;;;;;;5093293;28;20202;-68
2022/05/05 00:52:00;;;;;;;11.32;10.18;;;13.60;99.90;;;;;;5093202;28;20202;-68
2022/05/05 00:54:27;;;;;;;11.25;10.05;;;13.70;99.90;;;;;;5092858;28;20302;-68
2022/05/05 00:56:54;;;;;;;11.63;10.40;;;13.70;99.90;;;;;;5092755;28;20326;-68
2022/05/05 00:59:22;;;;;;;11.95;10.30;;;13.70;99.90;;;;;;5092845;28;20289;-67
2022/05/05 01:01:49;;;;;;;12.00;10.80;;;13.60;99.90;;;;;;5092843;28;20199;-69
2022/05/05 01:04:16;;;;;;;11.52;10.32;;;13.60;99.90;;;;;;5092854;28;20208;-67
2022/05/05 01:06:45;;;;;;;12.15;10.20;;;13.70;99.90;;;;;;5092966;28;20218;-68
2022/05/05 01:09:12;;;;;;;10.85;9.75;;;13.70;99.90;;;;;;5092831;28;20623;-68
2022/05/05 01:11:38;;;;;;;10.02;8.98;;;13.80;99.90;;;;;;5093164;28;20205;-67
2022/05/05 01:14:06;;;;;;;11.30;9.15;;;13.90;99.90;;;;;;5092860;28;20601;-67
2022/05/05 01:16:33;;;;;;;11.30;9.88;;;13.90;99.90;;;;;;5092687;28;20261;-67
2022/05/05 01:19:00;;;;;;;10.65;9.50;;;13.80;99.90;;;;;;5092861;28;20731;-67
2022/05/05 01:21:28;;;;;;;10.90;9.80;;;13.90;99.90;;;;;;5093040;28;20202;-68
2022/05/05 01:23:54;;;;;;;11.10;9.00;;;13.90;99.90;;;;;;5092474;28;20900;-68
2022/05/05 01:29:06;;;;;;;10.60;9.50;;;13.90;99.90;;;;;;5093102;28;20268;-67
2022/05/05 01:31:33;;;;;;;10.43;9.30;;;13.90;99.90;;;;;;5092946;28;20228;-66
2022/05/05 01:34:00;;;;;;;10.20;9.15;;;14.00;99.90;;;;;;5092862;28;20199;-68
2022/05/05 01:36:28;;;;;;;9.60;8.60;;;14.00;99.90;;;;;;5092212;28;20227;-68
2022/05/05 01:38:55;;;;;;;10.20;9.10;;;14.00;99.90;;;;;;5092000;28;20295;-67
2022/05/05 01:41:22;;;;;;;10.82;9.50;;;13.90;99.90;;;;;;5092504;28;20577;-69
2022/05/05 01:43:49;;;;;;;10.65;9.55;;;13.80;99.90;;;;;;5092280;28;20300;-69
2022/05/05 01:46:16;;;;;;;10.90;9.80;;;13.60;99.90;;;;;;5092332;28;20427;-68
2022/05/05 01:48:43;;;;;;;10.10;8.50;;;13.60;99.90;;;;;;5092196;28;20218;-68
2022/05/05 01:51:09;;;;;;;11.00;9.85;;;13.60;99.90;;;;;;5096085;28;20206;-68
2022/05/05 01:53:38;;;;;;;10.70;9.60;;;13.70;99.90;;;;;;5097137;28;20300;-69
2022/05/05 01:56:07;;;;;;;12.23;9.98;;;13.80;99.90;;;;;;5096354;28;20228;-68
2022/05/05 01:58:34;;;;;;;11.75;9.68;;;13.80;99.90;;;;;;5096256;28;20207;-68
2022/05/05 02:01:01;;;;;;;11.98;9.75;;;13.80;99.90;;;;;;5096048;28;20213;-68
2022/05/05 02:03:27;;;;;;;10.50;9.40;;;13.90;99.90;;;;;;5096471;28;20224;-66
2022/05/05 02:05:54;;;;;;;10.38;9.35;;;13.90;99.90;;;;;;5096050;28;20316;-66
2022/05/05 02:08:21;;;;;;;9.98;8.98;;;13.90;99.90;;;;;;5096494;28;20222;-66
2022/05/05 02:10:49;;;;;;;11.43;9.98;;;13.90;99.90;;;;;;5096376;28;20217;-67
2022/05/05 02:13:16;;;;;;;11.02;9.93;;;13.80;99.90;;;;;;5096568;28;20206;-67
2022/05/05 02:15:43;;;;;;;11.70;10.43;;;13.70;99.90;;;;;;5096112;28;20660;-67
2022/05/05 02:18:11;;;;;;;11.95;10.05;;;13.60;99.90;;;;;;5095929;28;20202;-67
2022/05/05 02:20:39;;;;;;;12.02;10.45;;;13.60;99.90;;;;;;5095778;28;20208;-67
2022/05/05 02:23:07;;;;;;;10.82;9.77;;;13.60;99.90;;;;;;5096371;28;20212;-68
2022/05/05 02:25:34;;;;;;;11.80;10.57;;;13.70;99.90;;;;;;5096256;28;20232;-67
2022/05/05 02:28:02;;;;;;;10.45;9.43;;;13.60;99.90;;;;;;5095629;28;20417;-67
2022/05/05 02:30:30;;;;;;;11.93;10.70;;;13.80;99.90;;;;;;5095501;28;20210;-67
2022/05/05 02:32:57;;;;;;;11.18;10.00;;;13.80;99.90;;;;;;5114736;28;20214;-67
2022/05/05 02:35:24;;;;;;;13.05;11.35;;;13.60;99.90;;;;;;5117157;28;20224;-67
2022/05/05 02:40:36;;;;;;;11.43;10.20;;;13.30;99.90;;;;;;5117565;28;20200;-68
2022/05/05 02:43:06;;;;;;;12.55;10.60;;;13.30;99.90;;;;;;5117266;28;20297;-68
2022/05/05 02:45:33;;;;;;;11.25;10.05;;;13.30;99.90;;;;;;5117197;28;20312;-68
2022/05/05 02:48:00;;;;;;;11.80;10.15;;;13.40;99.90;;;;;;5116949;28;20719;-68
2022/05/05 02:50:27;;;;;;;11.40;9.68;;;13.40;99.90;;;;;;5117305;28;20201;-68
2022/05/05 02:52:54;;;;;;;13.13;10.40;;;13.40;99.90;;;;;;5116979;28;20204;-68
2022/05/05 02:55:21;;;;;;;11.35;9.88;;;13.40;99.90;;;;;;5116838;28;20218;-68
2022/05/05 02:57:48;;;;;;;10.90;9.50;;;13.50;99.90;;;;;;5117144;28;20626;-68
2022/05/05 03:00:17;;;;;;;10.57;9.48;;;13.50;99.90;;;;;;5116671;28;20201;-68
2022/05/05 03:02:45;;;;;;;10.27;9.10;;;13.40;99.90;;;;;;5116503;28;20252;-68
2022/05/05 03:05:14;;;;;;;9.88;8.75;;;13.50;99.90;;;;;;5116755;28;20284;-68
2022/05/05 03:07:42;;;;;;;13.93;10.40;;;13.40;99.90;;;;;;5116439;28;20682;-68
2022/05/05 03:10:11;;;;;;;10.30;9.20;;;13.40;99.90;;;;;;5116801;28;20571;-68
2022/05/05 03:12:38;;;;;;;10.82;9.77;;;13.30;99.90;;;;;;5116702;28;20219;-68
2022/05/05 03:15:06;;;;;;;11.60;9.45;;;13.30;99.90;;;;;;5116350;28;20304;-68
2022/05/05 03:17:35;;;;;;;11.13;10.02;;;13.40;99.90;;;;;;5116691;28;20648;-68
2022/05/05 03:20:02;;;;;;;11.00;9.60;;;13.30;99.90;;;;;;5116472;28;20288;-68
2022/05/05 03:22:28;;;;;;;10.45;9.35;;;13.20;99.90;;;;;;5116578;28;20667;-68
2022/05/05 03:24:55;;;;;;;11.00;9.63;;;13.20;99.90;;;;;;5116316;28;20203;-68
2022/05/05 03:27:22;;;;;;;13.27;10.65;;;13.10;99.90;;;;;;5116647;28;20201;-68
2022/05/05 03:29:49;;;;;;;11.05;9.52;;;13.10;99.90;;;;;;5116449;28;20225;-68
2022/05/05 03:32:16;;;;;;;11.93;9.85;;;13.10;99.90;;;;;;5116475;28;20202;-68
2022/05/05 03:34:44;;;;;;;11.77;10.40;;;13.10;99.90;;;;;;5116463;28;20206;-68
2022/05/05 03:37:11;;;;;;;12.20;10.25;;;13.10;99.90;;;;;;5115940;28;20218;-68
2022/05/05 03:39:38;;;;;;;11.80;10.60;;;13.00;99.90;;;;;;5116352;28;20299;-68
2022/05/05 03:42:05;;;;;;;12.35;10.27;;;13.00;99.90;;;;;;5115834;28;20690;-68
2022/05/05 03:44:32;;;;;;;13.18;10.85;;;13.00;99.90;;;;;;5116266;28;20560;-68
2022/05/05 03:46:59;;;;;;;13.23;10.68;;;12.80;99.90;;;;;;5116009;28;20228;-68
2022/05/05 03:49:26;;;;;;;13.10;11.30;;;12.90;99.90;;;;;;5115793;28;20228;-68
2022/05/05 03:51:55;;;;;;;11.38;10.18;;;13.00;99.90;;;;;;5116077;28;20197;-68
2022/05/05 03:54:22;;;;;;;11.35;10.15;;;13.00;99.90;;;;;;5115460;28;20236;-68
2022/05/05 03:56:49;;;;;;;12.02;9.85;;;13.10;99.90;;;;;;5115845;28;20225;-68
2022/05/05 03:59:16;;;;;;;14.60;10.50;;;13.20;99.90;;;;;;5115698;28;20193;-68
2022/05/05 04:01:43;;;;;;;12.55;10.52;;;13.10;99.90;;;;;;5115767;28;20540;-68
2022/05/05 04:04:09;;;;;;;12.35;10.70;;;13.10;99.90;;;;;;5115485;28;20205;-68
2022/05/05 04:06:36;;;;;;;13.50;11.23;;;12.90;99.90;;;;;;5115531;28;20221;-68
2022/05/05 04:09:06;;;;;;;12.55;11.25;;;12.90;99.90;;;;;;5115643;28;20293;-68
2022/05/05 04:11:34;;;;;;;13.25;11.45;;;12.80;99.90;;;;;;5115624;28;20609;-68
2022/05/05 04:14:00;;;;;;;13.15;11.13;;;12.80;99.90;;;;;;5115333;28;20206;-68
2022/05/05 04:16:27;;;;;;;13.23;10.93;;;12.90;99.90;;;;;;5115144;28;20231;-68
2022/05/05 04:18:54;;;;;;;13.27;11.43;;;13.00;99.90;;;;;;5115228;28;20285;-68
2022/05/05 04:21:21;;;;;;;11.90;10.20;;;13.10;99.90;;;;;;5115142;28;20201;-68
2022/05/05 04:23:48;;;;;;;12.02;10.82;;;13.10;99.90;;;;;;5115028;28;20297;-68
2022/05/05 04:26:16;;;;;;;13.50;10.63;;;13.00;99.90;;;;;;5115155;28;20225;-68
2022/05/05 04:28:45;;;;;;;13.07;11.63;;;13.00;99.90;;;;;;5115009;28;20221;-68
2022/05/05 04:31:14;;;;;;;11.77;10.10;;;13.10;99.90;;;;;;5114959;28;20224;-68
2022/05/05 04:33:41;;;;;;;11.80;10.60;;;13.10;99.90;;;;;;5114553;28;20207;-68
2022/05/05 04:36:08;;;;;;;13.90;12.13;;;13.20;99.90;;;;;;5114806;28;20729;-68
2022/05/05 04:38:35;;;;;;;12.63;10.98;;;13.30;99.90;;;;;;5114872;28;20201;-68
2022/05/05 04:41:03;;;;;;;12.45;11.20;;;13.40;99.90;;;;;;5115050;28;20292;-68
2022/05/05 04:43:31;;;;;;;12.88;10.50;;;13.50;99.90;;;;;;5114812;28;20197;-68
2022/05/05 04:45:58;;;;;;;13.63;11.50;;;13.50;99.90;;;;;;5115044;28;20637;-68
2022/05/05 04:48:25;;;;;;;12.25;10.30;;;13.40;99.90;;;;;;5114501;28;20683;-68
2022/05/05 04:50:52;;;;;;;12.30;10.98;;;13.40;99.90;;;;;;5114738;28;20294;-68
2022/05/05 04:53:19;;;;;;;12.25;10.75;;;13.40;99.90;;;;;;5114786;28;20300;-68
2022/05/05 04:55:45;;;;;;;15.45;12.65;;;13.20;99.90;;;;;;5114685;28;20697;-68
2022/05/05 04:58:12;;;;;;;17.63;14.30;;;13.00;99.90;;;;;;5114807;28;20212;-68
2022/05/05 05:00:41;;;;;;;17.88;12.98;;;12.90;99.90;;;;;;5114651;28;20545;-68
2022/05/05 05:03:32;;;;;;;16.98;14.05;;;12.90;99.90;;;;;;5114488;28;20254;-68
2022/05/05 05:05:55;;;;;;;16.75;14.25;;;12.90;99.90;;;;;;5114086;28;20221;-68
2022/05/05 05:08:22;;;;;;;21.08;15.48;;;13.00;99.90;;;;;;5114104;28;20197;-68
2022/05/05 05:10:49;;;;;;;18.70;14.15;;;13.10;99.90;;;;;;5114358;28;20205;-68
2022/05/05 05:13:15;;;;;;;19.50;15.82;;;13.20;99.90;;;;;;5114151;28;20197;-68
2022/05/05 05:15:44;;;;;;;17.25;14.10;;;13.20;99.90;;;;;;5113887;28;20834;-68
2022/05/05 05:18:10;;;;;;;17.45;12.95;;;13.30;99.90;;;;;;5114636;28;20202;-68
2022/05/05 05:20:37;;;;;;;19.55;15.32;;;13.30;99.90;;;;;;5114285;28;20659;-68
2022/05/05 05:23:04;;;;;;;18.40;15.10;;;13.30;99.90;;;;;;5114247;28;20297;-68
2022/05/05 05:25:31;;;;;;;18.45;14.40;;;13.30;99.90;;;;;;5113867;28;20221;-68
2022/05/05 05:27:58;;;;;;;17.33;14.82;;;13.30;99.90;;;;;;5114508;28;20655;-68
2022/05/05 05:30:25;;;;;;;18.63;14.80;;;13.40;99.90;;;;;;5114249;28;20221;-68
2022/05/05 05:32:53;;;;;;;18.10;14.40;;;13.50;99.90;;;;;;5114465;28;20297;-68
2022/05/05 05:35:20;;;;;;;18.92;15.25;;;13.60;99.90;;;;;;5113969;28;20316;-68
2022/05/05 05:37:47;;;;;;;16.30;13.90;;;13.70;99.90;;;;;;5114287;28;20204;-68
2022/05/05 05:40:15;;;;;;;20.90;15.10;;;13.60;99.90;;;;;;5114531;28;20193;-67
2022/05/05 05:42:42;;;;;;;19.23;14.73;;;13.60;99.90;;;;;;5114314;28;20660;-68
2022/05/05 05:45:10;;;;;;;18.23;13.75;;;13.60;99.90;;;;;;5114020;28;20205;-68
2022/05/05 05:47:37;;;;;;;17.48;15.38;;;13.70;99.90;;;;;;5114041;28;20242;-68
2022/05/05 05:50:06;;;;;;;19.83;15.00;;;13.80;99.90;;;;;;5114190;28;20226;-68
2022/05/05 05:52:33;;;;;;;20.73;16.25;;;13.80;99.90;;;;;;5114292;28;20208;-68
2022/05/05 05:55:00;;;;;;;16.70;14.90;;;13.70;99.90;;;;;;5113626;28;20549;-68
2022/05/05 05:57:27;;;;;;;19.17;15.55;;;13.70;99.90;;;;;;5114274;28;20545;-68
2022/05/05 05:59:53;;;;;;;18.52;15.20;;;13.80;99.90;;;;;;5113941;28;20720;-68
2022/05/05 06:05:07;;;;;;;23.75;16.50;;;13.50;99.90;;;;;;5114101;28;20719;-67
2022/05/05 06:07:34;;;;;;;21.98;17.20;;;13.40;99.90;;;;;;5113867;28;20212;-68
2022/05/05 06:10:01;;;;;;;23.02;16.92;;;13.40;99.90;;;;;;5114077;28;20228;-68
2022/05/05 06:12:27;;;;;;;22.75;17.70;;;13.40;99.90;;;;;;5113984;28;20558;-68
2022/05/05 06:14:54;;;;;;;21.73;15.55;;;13.50;99.90;;;;;;5113913;28;20296;-68
2022/05/05 06:17:21;;;;;;;20.00;16.77;;;13.70;99.90;;;;;;5114015;28;20223;-68
2022/05/05 06:19:48;;;;;;;19.98;16.10;;;13.70;99.90;;;;;;5114118;28;20552;-67
2022/05/05 06:22:16;;;;;;;20.67;16.83;;;13.80;99.90;;;;;;5113709;28;20208;-68
2022/05/05 06:24:43;;;;;;;21.30;16.52;;;13.70;99.90;;;;;;5113867;28;20270;-68
2022/05/05 06:27:09;;;;;;;19.23;15.90;;;13.80;99.90;;;;;;5113955;28;20225;-68
2022/05/05 06:29:36;;;;;;;20.13;17.02;;;13.90;99.90;;;;;;5113760;28;20223;-68
2022/05/05 06:32:03;;;;;;;22.90;18.35;;;13.90;99.90;;;;;;5113907;28;20203;-67
2022/05/05 06:34:30;;;;;;;21.30;17.58;;;13.90;99.90;;;;;;5113557;28;20202;-68
2022/05/05 06:36:58;;;;;;;20.30;16.35;;;13.90;99.90;;;;;;5115978;28;20223;-68
2022/05/05 06:39:26;;;;;;;22.23;16.70;;;14.00;99.90;;;;;;5117519;28;20201;-68
2022/05/05 06:41:53;;;;;;;20.10;16.55;;;14.00;99.90;;;;;;5117286;28;20679;-68
2022/05/05 06:44:19;;;;;;;23.70;16.63;;;14.10;99.90;;;;;;5117077;28;20233;-68
2022/05/05 06:46:46;;;;;;;21.17;16.85;;;14.20;99.90;;;;;;5116987;28;20220;-68
2022/05/05 06:49:13;;;;;;;21.60;16.45;;;14.20;99.90;;;;;;5117221;28;20222;-68
2022/05/05 06:51:40;;;;;;;19.23;16.02;;;14.30;99.90;;;;;;5117368;28;20229;-68
2022/05/05 06:54:07;;;;;;;19.17;15.90;;;14.30;99.90;;;;;;5117255;28;20199;-67
2022/05/05 06:56:35;;;;;;;18.63;16.48;;;14.40;99.90;;;;;;5116835;28;20223;-68
2022/05/05 06:59:02;;;;;;;16.83;14.98;;;14.50;99.90;;;;;;5117308;28;20204;-68
2022/05/05 07:06:57;;;;;;;20.75;15.38;;;14.70;99.90;;;;;;5117243;28;20222;-68
2022/05/05 07:12:10;;;;;;;16.83;14.10;;;14.40;99.90;;;;;;5116902;28;20550;-68
2022/05/05 07:14:37;;;;;;;19.90;14.15;;;14.40;99.90;;;;;;5116601;28;20205;-68
2022/05/05 07:17:04;;;;;;;15.52;12.45;;;14.40;99.90;;;;;;5116483;28;20810;-68
2022/05/05 07:19:31;;;;;;;15.73;12.90;;;14.40;99.90;;;;;;5116866;28;20203;-67
2022/05/05 07:21:58;;;;;;;15.90;13.32;;;14.40;99.90;;;;;;5116960;28;20203;-68
2022/05/05 07:24:25;;;;;;;16.27;13.60;;;14.30;99.90;;;;;;5116395;28;20229;-68
2022/05/05 07:26:52;;;;;;;14.90;12.27;;;14.20;99.90;;;;;;5116346;28;20707;-68
2022/05/05 07:29:20;;;;;;;17.63;15.02;;;14.20;99.90;;;;;;5116702;28;20229;-67
2022/05/05 07:31:47;;;;;;;17.83;13.93;;;14.30;99.90;;;;;;5116819;28;20295;-68
2022/05/05 07:34:14;;;;;;;14.63;12.48;;;14.40;99.90;;;;;;5116118;28;20205;-68
2022/05/05 07:36:40;;;;;;;14.00;12.10;;;14.70;99.90;;;;;;5116391;28;20228;-68
2022/05/05 07:39:07;;;;;;;15.27;12.05;;;14.80;99.90;;;;;;5116320;28;20205;-68
2022/05/05 07:41:34;;;;;;;13.23;11.75;;;15.10;99.90;;;;;;5116420;28;20209;-68
2022/05/05 07:44:01;;;;;;;13.88;12.35;;;15.30;99.90;;;;;;5116274;28;20222;-68
2022/05/05 07:46:29;;;;;;;13.65;12.25;;;15.40;99.90;;;;;;5115616;28;20731;-68
2022/05/05 07:48:56;;;;;;;15.25;12.40;;;15.40;99.90;;;;;;5116280;28;20222;-68
2022/05/05 07:51:23;;;;;;;14.70;12.98;;;15.30;99.90;;;;;;5115849;28;20314;-68
2022/05/05 07:56:30;;;;;;;14.90;12.65;;;15.10;99.90;;;;;;5115228;28;20560;-68
2022/05/05 07:58:57;;;;;;;14.30;11.90;;;15.00;99.90;;;;;;5115953;28;20200;-68
2022/05/05 08:01:24;;;;;;;15.63;12.18;;;14.90;99.90;;;;;;5115834;28;20619;-68
2022/05/05 08:03:52;;;;;;;13.93;12.45;;;14.80;99.90;;;;;;5115661;28;20629;-68
2022/05/05 08:06:19;;;;;;;12.45;11.15;;;14.90;99.90;;;;;;5115341;28;20233;-68
2022/05/05 08:08:46;;;;;;;16.42;12.80;;;14.60;99.90;;;;;;5115652;28;20559;-68
2022/05/05 08:11:12;;;;;;;16.00;13.15;;;14.60;99.90;;;;;;5115406;28;20234;-68
2022/05/05 08:13:39;;;;;;;15.02;13.30;;;14.70;99.90;;;;;;5115482;28;20206;-68
2022/05/05 08:16:07;;;;;;;15.60;13.02;;;14.80;99.90;;;;;;5115184;28;20579;-68
2022/05/05 08:18:33;;;;;;;15.52;13.25;;;15.00;99.90;;;;;;5115233;28;20290;-68
2022/05/05 08:21:02;;;;;;;15.27;12.88;;;15.00;99.90;;;;;;5115361;28;20234;-69
2022/05/05 08:23:29;;;;;;;13.40;12.00;;;15.00;99.90;;;;;;5115186;28;20209;-69
2022/05/05 08:28:40;;;;;;;17.20;13.57;;;15.10;99.90;;;;;;5115182;28;20262;-68
2022/05/05 08:31:07;;;;;;;17.38;14.30;;;14.90;99.90;;;;;;5114985;28;20219;-68
2022/05/05 08:33:35;;;;;;;16.67;13.80;;;14.60;99.90;;;;;;5115244;28;20210;-68
2022/05/05 08:36:04;;;;;;;17.85;14.52;;;14.50;99.90;;;;;;5114878;28;20226;-68
2022/05/05 08:38:31;;;;;;;16.20;13.98;;;14.60;99.90;;;;;;5114807;28;20298;-68
2022/05/05 08:40:58;;;;;;;19.33;13.82;;;14.80;99.90;;;;;;5115012;28;20608;-68
2022/05/05 08:43:25;;;;;;;15.52;13.82;;;15.00;99.90;;;;;;5114758;28;20200;-68
2022/05/05 08:45:53;;;;;;;18.25;14.80;;;15.10;99.90;;;;;;5115006;28;20229;-68
2022/05/05 08:48:21;;;;;;;18.05;14.77;;;15.20;99.90;;;;;;5114700;28;20212;-68
2022/05/05 08:50:53;;;;;;;16.85;13.75;;;15.30;99.90;;;;;;5114593;28;20693;-69
2022/05/05 08:53:25;;;;;;;15.82;13.60;;;15.40;99.90;;;;;;5114564;28;20219;-68
2022/05/05 08:55:52;;;;;;;16.13;13.50;;;15.50;99.90;;;;;;5114621;28;20235;-68
2022/05/05 08:58:19;;;;;;;15.27;13.30;;;15.60;99.90;;;;;;5114435;28;20216;-68
2022/05/05 09:00:45;;;;;;;14.88;13.27;;;15.70;99.90;;;;;;5114293;28;20206;-68
2022/05/05 09:03:12;;;;;;;17.23;13.55;;;15.80;99.90;;;;;;5114081;28;20205;-68
2022/05/05 09:05:50;;;;;;;17.85;15.20;;;15.80;99.90;;;;;;5114365;28;20231;-68
2022/05/05 09:08:35;;;;;;;16.13;14.25;;;15.70;99.90;;;;;;5114610;28;20208;-69
2022/05/05 09:11:04;;;;;;;16.58;14.80;;;15.60;99.90;;;;;;5103455;28;20636;-68
2022/05/05 09:13:32;;;;;;;19.13;15.35;;;15.60;99.90;;;;;;5092774;28;20231;-68
2022/05/05 09:15:59;;;;;;;19.40;16.55;;;15.60;99.90;;;;;;5092725;28;20265;-68
2022/05/05 09:18:28;;;;;;;18.55;16.55;;;15.40;99.90;;;;;;5092853;28;20577;-68
2022/05/05 09:20:57;;;;;;;21.10;16.83;;;15.20;99.90;;;;;;5092712;28;20197;-69
2022/05/05 09:23:32;;;;;;;20.50;16.83;;;15.30;99.90;;;;;;5091985;28;20204;-69
2022/05/05 09:26:01;;;;;;;21.38;16.83;;;15.20;99.90;;;;;;5092463;28;20635;-69
2022/05/05 09:28:31;;;;;;;22.05;17.20;;;15.20;99.90;;;;;;5092504;28;20243;-69
2022/05/05 09:31:05;;;;;;;21.63;18.30;;;15.30;99.90;;;;;;5092493;28;20600;-68
2022/05/05 09:33:40;;;;;;;21.73;17.13;;;15.20;99.90;;;;;;5092124;28;20208;-68
2022/05/05 09:36:08;;;;;;;21.15;16.70;;;15.10;99.90;;;;;;5092450;28;20318;-69
2022/05/05 09:38:53;;;;;;;21.30;17.60;;;15.10;99.90;;;;;;5092603;28;20205;-69
2022/05/05 09:41:22;;;;;;;19.83;17.42;;;15.10;99.90;;;;;;5092388;28;20658;-69
2022/05/05 09:43:49;;;;;;;20.75;16.90;;;15.10;99.90;;;;;;5092163;28;20208;-69
2022/05/05 09:46:33;;;;;;;20.25;16.38;;;15.20;99.90;;;;;;5092268;28;20256;-70
2022/05/05 09:49:11;;;;;;;21.63;18.02;;;15.20;99.90;;;;;;5092589;28;20249;-69
2022/05/05 09:51:41;;;;;;;22.73;18.27;;;15.10;99.90;;;;;;5092217;28;20321;-70
2022/05/05 09:59:47;;;;;;;21.67;17.13;;;15.20;99.90;;;;;;5092447;28;20238;-69
2022/05/05 10:04:00;;;;;;;21.52;17.75;;;15.20;99.90;;;;;;5092426;28;20227;-68
2022/05/05 10:05:06;;;;;;;20.80;17.27;;;15.30;99.90;;;;;;5091777;28;20208;-68
2022/05/05 10:07:35;;;;;;;20.05;16.15;;;15.30;99.90;;;;;;5092502;28;20704;-69
2022/05/05 10:10:02;;;;;;;18.00;15.55;;;15.40;99.90;;;;;;5093347;28;20238;-69
2022/05/05 10:12:30;;;;;;;21.55;18.42;;;15.60;99.90;;;;;;5096279;28;20211;-69
2022/05/05 10:14:57;;;;;;;22.17;17.10;;;15.80;99.90;;;;;;5095672;28;20204;-69
2022/05/05 10:17:25;;;;;;;22.23;18.75;;;15.90;99.90;;;;;;5095778;28;20225;-69
2022/05/05 10:19:52;;;;;;;20.15;17.90;;;16.00;99.90;;;;;;5096088;28;20209;-69
2022/05/05 10:22:31;;;;;;;21.60;16.88;;;16.00;99.90;;;;;;5096226;28;20240;-70
2022/05/05 10:25:02;;;;;;;22.85;17.77;;;15.80;99.90;;;;;;5095867;28;20222;-69
2022/05/05 10:27:30;;;;;;;22.08;18.80;;;15.90;99.90;;;;;;5095809;28;20207;-70
2022/05/05 10:29:57;;;;;;;22.85;19.45;;;15.90;99.90;;;;;;5095732;28;20209;-69
2022/05/05 10:32:26;;;;;;;24.35;19.65;;;15.90;99.90;;;;;;5095892;28;20209;-69
2022/05/05 10:34:54;;;;;;;21.98;18.98;;;16.00;99.90;;;;;;5095529;28;20208;-69
2022/05/05 10:37:33;;;;;;;23.42;19.23;;;16.20;99.90;;;;;;5095707;28;20244;-69
2022/05/05 10:40:07;;;;;;;24.30;19.77;;;16.30;99.90;;;;;;5095790;28;20248;-70
2022/05/05 10:42:39;;;;;;;26.25;21.02;;;16.40;99.90;;;;;;5095390;28;20251;-69
2022/05/05 10:45:16;;;;;;;25.52;21.30;;;16.30;99.90;;;;;;5095331;28;20576;-69
2022/05/05 10:48:38;;;;;;;21.52;18.48;;;16.40;99.90;;;;;;5095652;28;20201;-69
2022/05/05 10:51:09;;;;;;;24.42;20.65;;;16.50;99.90;;;;;;5091170;28;20229;-69
2022/05/05 10:53:40;;;;;;;24.05;19.70;;;16.40;99.90;;;;;;5095383;28;20301;-70
2022/05/05 10:56:28;;;;;;;22.23;19.70;;;16.50;99.90;;;;;;5095395;28;20243;-70
2022/05/05 10:59:07;;;;;;;24.40;21.13;;;16.60;99.90;;;;;;5095389;28;20206;-70
2022/05/05 11:01:59;;;;;;;25.63;21.83;;;16.50;99.90;;;;;;5095477;28;20201;-70
2022/05/05 11:04:32;;;;;;;25.45;21.20;;;16.50;99.90;;;;;;5094623;28;20202;-69
2022/05/05 11:07:37;;;;;;;28.35;23.08;;;16.50;99.90;;;;;;5095583;28;20220;-69
2022/05/05 11:10:08;;;;;;;24.25;21.17;;;16.40;99.90;;;;;;5093926;28;20209;-69
2022/05/05 11:12:37;;;;;;;24.80;21.65;;;16.30;99.90;;;;;;5094903;28;20209;-69
2022/05/05 11:23:30;;;;;;;26.70;22.33;;;15.80;99.90;;;;;;5093873;28;20716;-68
2022/05/05 11:26:00;;;;;;;28.15;22.98;;;15.80;99.90;;;;;;5094568;28;20232;-69
2022/05/05 11:28:30;;;;;;;25.10;22.30;;;15.70;99.90;;;;;;5094710;28;20447;-69
2022/05/05 11:30:58;;;;;;;27.85;23.60;;;15.70;99.90;;;;;;5095132;28;20229;-69
2022/05/05 11:33:25;;;;;;;25.10;20.40;;;15.60;99.90;;;;;;5094173;28;20296;-69
2022/05/05 11:35:57;;;;;;;29.20;22.70;;;15.70;99.90;;;;;;5094731;28;20225;-69
2022/05/05 11:38:24;;;;;;;27.13;22.38;;;15.70;99.90;;;;;;5094492;28;20213;-69
2022/05/05 11:41:08;;;;;;;27.33;23.00;;;15.70;99.90;;;;;;5094333;28;20629;-69
2022/05/05 11:46:21;;;;;;;32.50;23.85;;;15.60;99.90;;;;;;5094428;28;20341;-69
2022/05/05 11:48:56;;;;;;;29.00;23.40;;;15.60;99.90;;;;;;5094146;28;20213;-69
2022/05/05 11:51:25;;;;;;;28.80;22.73;;;15.60;99.90;;;;;;5093947;28;20311;-69
2022/05/05 11:54:00;;;;;;;30.85;23.70;;;15.80;99.90;;;;;;5094020;28;20596;-69
2022/05/05 11:56:28;;;;;;;28.33;23.17;;;16.00;99.90;;;;;;5094228;28;20255;-70
2022/05/05 12:01:43;;;;;;;28.33;23.90;;;16.20;99.90;;;;;;5093822;28;20197;-70
2022/05/05 12:04:12;;;;;;;29.85;23.58;;;16.10;99.90;;;;;;5093674;28;20213;-70
2022/05/05 12:06:40;;;;;;;31.33;24.65;;;16.10;99.90;;;;;;5093925;28;20631;-69
2022/05/05 12:09:08;;;;;;;32.50;26.27;;;15.80;99.90;;;;;;5094007;28;20570;-70
2022/05/05 12:11:36;;;;;;;31.75;25.15;;;15.50;99.90;;;;;;5093779;28;20271;-68
2022/05/05 12:14:06;;;;;;;33.45;24.70;;;15.40;99.90;;;;;;5093598;28;20217;-68
2022/05/05 12:16:34;;;;;;;34.35;26.05;;;15.50;99.90;;;;;;5093537;28;20240;-68
2022/05/05 12:19:10;;;;;;;31.80;24.73;;;15.50;99.90;;;;;;5093887;28;20295;-69
2022/05/05 12:21:36;;;;;;;32.22;25.00;;;15.50;99.90;;;;;;5093612;28;20197;-69
2022/05/05 12:24:05;;;;;;;33.30;24.30;;;15.50;99.90;;;;;;5093407;28;20255;-68
2022/05/05 12:26:34;;;;;;;30.05;22.95;;;15.50;99.90;;;;;;5092765;28;20228;-69
2022/05/05 12:29:02;;;;;;;29.58;23.40;;;15.40;99.90;;;;;;5093501;28;20621;-68
2022/05/05 12:31:29;;;;;;;32.17;24.23;;;15.50;99.90;;;;;;5093518;28;20239;-69
2022/05/05 12:33:57;;;;;;;32.72;24.42;;;15.50;99.90;;;;;;5092288;28;20205;-68
2022/05/05 12:36:28;;;;;;;32.63;25.48;;;15.50;99.90;;;;;;5093118;28;20224;-68
2022/05/05 12:39:12;;;;;;;34.30;25.10;;;15.40;99.90;;;;;;5093356;28;20208;-68
2022/05/05 12:41:39;;;;;;;28.00;21.25;;;15.30;99.90;;;;;;5093446;28;20208;-68
2022/05/05 12:44:09;;;;;;;32.80;23.00;;;15.40;99.90;;;;;;5093042;28;20201;-68
2022/05/05 12:46:48;;;;;;;34.60;25.20;;;15.50;99.90;;;;;;5093201;28;20230;-67
2022/05/05 12:49:33;;;;;;;32.05;23.92;;;15.50;99.90;;;;;;5093091;28;20199;-68
2022/05/05 12:52:01;;;;;;;28.80;21.70;;;15.60;99.90;;;;;;5092848;28;20235;-68
2022/05/05 12:59:57;;;;;;;28.77;22.30;;;15.60;99.90;;;;;;5093360;28;20207;-68
2022/05/05 13:02:24;;;;;;;30.55;22.58;;;15.70;99.90;;;;;;5093329;28;20258;-68
2022/05/05 13:04:51;;;;;;;31.70;24.00;;;15.40;99.90;;;;;;5093383;28;20296;-68
2022/05/05 13:07:20;;;;;;;29.35;22.23;;;15.50;99.90;;;;;;5092983;28;20218;-68
2022/05/05 13:09:46;;;;;;;28.00;20.80;;;15.50;99.90;;;;;;5092968;28;20728;-68
2022/05/05 13:12:13;;;;;;;28.88;21.52;;;15.70;99.90;;;;;;5092805;28;20311;-68
2022/05/05 13:14:40;;;;;;;28.00;21.10;;;15.80;99.90;;;;;;5092455;28;20204;-68
2022/05/05 13:17:07;;;;;;;27.85;20.98;;;15.90;99.90;;;;;;5092555;28;20285;-68
2022/05/05 13:19:33;;;;;;;27.95;20.95;;;16.10;99.90;;;;;;5092812;28;20201;-68
2022/05/05 13:22:01;;;;;;;29.92;21.63;;;16.20;99.90;;;;;;5093164;28;20211;-68
2022/05/05 13:24:29;;;;;;;27.23;21.50;;;16.30;99.90;;;;;;5093008;28;20225;-69